Time;durP1;ratioP1;P1;durP2;ratioP2;P2;SDS_P1;SDS_P2;PMS_P1;PMS_P2;Temp;Humidity;BMP_temperature;BMP_pressure;BME280_temperature;BME280_humidity;BME280_pressure;Samples;Min_cycle;Max_cycle;Signal;HPM_P1;HPM_P2
2024/01/01 00:00:52;;;;;;;3.33;2.10;;;;;;;-7.23;52.81;99237.66;4921944;29;20110;-64
2024/01/01 00:03:18;;;;;;;3.88;2.17;;;;;;;-7.19;52.76;99277.50;4924835;29;20407;-63
2024/01/01 00:05:44;;;;;;;3.63;1.83;;;;;;;-7.49;52.16;99239.66;4926243;29;20040;-63
2024/01/01 00:08:10;;;;;;;5.28;2.17;;;;;;;-7.66;52.86;99226.09;4941354;29;20055;-65
2024/01/01 00:10:35;;;;;;;4.78;1.90;;;;;;;-7.37;52.40;99280.75;4927000;29;20133;-64
2024/01/01 00:13:01;;;;;;;3.10;1.73;;;;;;;-7.27;52.68;99325.13;4926363;29;20047;-63
2024/01/01 00:15:27;;;;;;;1.80;1.20;;;;;;;-7.87;52.33;99245.22;4911073;29;20489;-63
2024/01/01 00:17:55;;;;;;;3.15;1.80;;;;;;;-7.69;52.09;99307.69;4942338;28;20071;-65
2024/01/01 00:20:21;;;;;;;2.75;1.52;;;;;;;-8.09;52.02;99265.88;4910609;29;20617;-65
2024/01/01 00:22:49;;;;;;;2.65;1.35;;;;;;;-8.48;52.29;99224.97;4909599;29;20055;-64
2024/01/01 00:25:15;;;;;;;3.28;1.98;;;;;;;-8.40;51.94;99274.22;4926316;29;20450;-64
2024/01/01 00:27:44;;;;;;;1.55;1.10;;;;;;;-8.83;51.85;99201.09;4926342;29;20134;-65
2024/01/01 00:30:10;;;;;;;21.60;9.85;;;;;;;-8.39;51.72;99318.00;4926790;29;20138;-63
2024/01/01 00:32:36;;;;;;;10.18;6.22;;;;;;;-8.37;51.85;99319.81;4942125;28;20051;-63
2024/01/01 00:35:05;;;;;;;3.88;1.65;;;;;;;-8.34;52.12;99337.69;4910348;29;20104;-64
2024/01/01 00:37:31;;;;;;;2.00;1.30;;;;;;;-8.39;52.08;99330.63;4910259;29;20043;-66
2024/01/01 00:39:57;;;;;;;3.30;1.40;;;;;;;-8.26;52.22;99354.94;4927521;29;20054;-64
2024/01/01 00:42:26;;;;;;;3.55;1.67;;;;;;;-8.45;51.82;99308.41;4924909;29;20066;-64
2024/01/01 00:44:52;;;;;;;3.08;1.50;;;;;;;-8.23;52.54;99327.34;4924805;29;20119;-64
2024/01/01 00:47:18;;;;;;;2.08;1.40;;;;;;;-8.05;52.17;99353.66;4939436;28;20047;-63
2024/01/01 00:49:44;;;;;;;3.00;1.63;;;;;;;-7.98;51.96;99372.56;4940114;28;20043;-65
2024/01/01 00:52:10;;;;;;;3.25;1.63;;;;;;;-8.02;51.72;99347.91;4940191;28;20506;-64
2024/01/01 00:54:36;;;;;;;9.93;1.92;;;;;;;-8.06;52.03;99356.13;4924225;29;20693;-64
2024/01/01 00:57:02;;;;;;;2.55;1.30;;;;;;;-8.29;51.86;99322.81;4940901;28;20484;-63
2024/01/01 00:59:30;;;;;;;2.72;1.73;;;;;;;-8.27;52.21;99323.75;4941107;28;20341;-63
2024/01/01 01:01:56;;;;;;;2.85;1.67;;;;;;;-8.20;51.68;99340.16;4940251;28;20062;-63
2024/01/01 01:04:22;;;;;;;1.88;1.35;;;;;;;-8.17;51.67;99346.25;4909388;29;20047;-63
2024/01/01 01:06:48;;;;;;;1.55;1.13;;;;;;;-8.23;51.77;99348.41;4924751;29;20130;-63
2024/01/01 01:09:14;;;;;;;2.65;1.40;;;;;;;-8.31;51.93;99357.19;4923564;29;20518;-63
2024/01/01 01:11:42;;;;;;;4.43;2.03;;;;;;;-8.20;52.00;99393.19;4921989;29;20052;-63
2024/01/01 01:14:08;;;;;;;2.22;1.20;;;;;;;-8.33;51.17;99384.84;4923730;29;20511;-64
2024/01/01 01:16:35;;;;;;;2.35;1.65;;;;;;;-8.48;51.82;99367.13;4925794;29;20046;-64
2024/01/01 01:19:01;;;;;;;2.08;1.45;;;;;;;-8.51;51.90;99392.25;4923596;29;20368;-63
2024/01/01 01:21:27;;;;;;;1.70;1.20;;;;;;;-8.42;52.10;99402.00;4940921;28;20050;-64
2024/01/01 01:23:53;;;;;;;4.68;1.77;;;;;;;-8.51;51.75;99394.78;4927065;29;20078;-64
2024/01/01 01:26:22;;;;;;;2.67;1.38;;;;;;;-8.48;52.06;99421.84;4908483;29;20426;-63
2024/01/01 01:28:48;;;;;;;3.08;1.60;;;;;;;-8.50;51.97;99420.88;4922767;29;20058;-64
2024/01/01 01:31:14;;;;;;;3.42;1.77;;;;;;;-8.50;52.12;99411.66;4923400;29;20499;-64
2024/01/01 01:33:40;;;;;;;3.88;1.80;;;;;;;-8.57;52.37;99401.97;4922136;29;20044;-63
2024/01/01 01:36:08;;;;;;;3.67;1.60;;;;;;;-8.58;52.34;99392.66;4924975;29;20396;-63
2024/01/01 01:38:35;;;;;;;6.07;1.98;;;;;;;-8.48;52.22;99407.53;4939501;28;20050;-63
2024/01/01 01:41:01;;;;;;;3.92;1.60;;;;;;;-8.65;52.34;99400.63;4924873;29;20474;-65
2024/01/01 01:43:27;;;;;;;2.25;1.50;;;;;;;-8.56;52.10;99417.97;4927875;29;20055;-64
2024/01/01 01:45:56;;;;;;;2.92;1.83;;;;;;;-8.69;52.26;99406.25;4938743;28;20082;-63
2024/01/01 01:48:22;;;;;;;2.90;1.67;;;;;;;-8.57;52.16;99431.38;4925714;29;20188;-63
2024/01/01 01:50:49;;;;;;;2.60;1.60;;;;;;;-8.40;52.57;99450.03;4938967;28;20044;-64
2024/01/01 01:53:24;;;;;;;3.08;1.50;;;;;;;-8.44;52.31;99427.91;4938039;28;20058;-64
2024/01/01 01:55:52;;;;;;;2.75;1.48;;;;;;;-8.21;52.70;99467.19;4924807;29;20147;-64
2024/01/01 01:58:21;;;;;;;3.15;1.63;;;;;;;-8.16;52.65;99468.31;4920972;29;20518;-63
2024/01/01 02:00:48;;;;;;;3.75;1.27;;;;;;;-8.24;52.57;99446.81;4923393;29;20204;-63
2024/01/01 02:03:14;;;;;;;3.05;1.70;;;;;;;-8.20;53.08;99459.69;4923074;29;22392;-65
2024/01/01 02:05:40;;;;;;;3.53;1.38;;;;;;;-8.34;52.28;99452.94;4922546;29;20047;-64
2024/01/01 02:08:07;;;;;;;2.85;1.55;;;;;;;-8.34;52.45;99452.94;4939375;28;20072;-64
2024/01/01 02:10:36;;;;;;;2.60;1.60;;;;;;;-8.16;52.75;99491.03;4922571;29;20070;-64
2024/01/01 02:13:02;;;;;;;3.75;1.52;;;;;;;-8.17;52.66;99489.31;4940052;28;20044;-64
2024/01/01 02:15:28;;;;;;;5.38;1.63;;;;;;;-8.33;53.00;99458.06;4940048;28;20479;-65
2024/01/01 02:17:55;;;;;;;3.45;1.67;;;;;;;-8.03;53.18;99503.66;4939846;28;20107;-63
2024/01/01 02:20:41;;;;;;;2.15;1.58;;;;;;;-8.22;52.51;99491.56;4923136;29;20570;-64
2024/01/01 02:23:07;;;;;;;2.97;1.60;;;;;;;-8.31;52.63;99480.91;4939849;28;20051;-63
2024/01/01 02:25:33;;;;;;;3.25;1.77;;;;;;;-8.09;53.13;99513.38;4938266;28;20064;-63
2024/01/01 02:27:59;;;;;;;3.13;1.52;;;;;;;-8.21;53.08;99485.72;4939229;28;20055;-64
2024/01/01 02:30:25;;;;;;;2.17;1.58;;;;;;;-7.99;52.61;99516.47;4937973;28;20040;-65
2024/01/01 02:32:51;;;;;;;2.45;1.35;;;;;;;-7.96;52.68;99525.09;4923602;29;20053;-63
2024/01/01 02:35:17;;;;;;;1.98;1.33;;;;;;;-7.99;52.53;99517.31;4908005;29;20043;-62
2024/01/01 02:37:43;;;;;;;3.25;1.77;;;;;;;-7.97;53.19;99523.34;4939241;28;20055;-63
2024/01/01 02:40:11;;;;;;;4.38;1.77;;;;;;;-7.99;52.88;99511.41;4939873;28;20047;-64
2024/01/01 02:42:39;;;;;;;3.97;1.42;;;;;;;-7.82;53.20;99525.94;4923190;29;20071;-63
2024/01/01 02:45:07;;;;;;;3.63;2.17;;;;;;;-7.77;52.95;99527.09;4922317;29;20044;-65
2024/01/01 02:47:33;;;;;;;2.92;1.60;;;;;;;-7.79;53.10;99525.22;4923379;29;20048;-64
2024/01/01 02:49:58;;;;;;;2.83;1.55;;;;;;;-8.02;52.80;99500.34;4908242;29;20411;-64
2024/01/01 02:52:24;;;;;;;3.97;1.70;;;;;;;-7.88;52.48;99523.91;4937777;28;20410;-62
2024/01/01 02:54:50;;;;;;;2.28;1.50;;;;;;;-8.07;52.44;99514.34;4923226;29;20059;-63
2024/01/01 02:57:16;;;;;;;2.92;1.25;;;;;;;-8.20;53.18;99514.38;4922343;29;20039;-64
2024/01/01 02:59:42;;;;;;;2.28;1.33;;;;;;;-8.00;52.89;99543.38;4922799;29;20040;-63
2024/01/01 03:02:09;;;;;;;2.22;1.20;;;;;;;-8.23;52.54;99507.47;4905920;29;20174;-63
2024/01/01 03:04:35;;;;;;;2.78;1.50;;;;;;;-8.23;52.66;99537.78;4924414;29;20536;-62
2024/01/01 03:07:02;;;;;;;1.95;1.20;;;;;;;-8.19;52.81;99544.78;4921873;29;20047;-65
2024/01/01 03:09:28;;;;;;;2.20;1.50;;;;;;;-8.30;52.91;99539.84;4938259;28;20047;-63
2024/01/01 03:11:54;;;;;;;2.22;1.30;;;;;;;-8.43;52.77;99549.19;4937546;28;20051;-63
2024/01/01 03:14:20;;;;;;;3.97;1.50;;;;;;;-8.81;52.64;99494.66;4938621;28;20047;-64
2024/01/01 03:16:46;;;;;;;2.50;1.70;;;;;;;-8.71;52.91;99527.28;4921089;29;20044;-63
2024/01/01 03:19:12;;;;;;;2.17;1.15;;;;;;;-8.53;53.11;99575.53;4938021;28;20062;-63
2024/01/01 03:21:38;;;;;;;3.05;1.50;;;;;;;-8.59;52.77;99581.81;4921581;29;20060;-63
2024/01/01 03:24:04;;;;;;;2.33;1.25;;;;;;;-8.66;53.39;99578.91;4938541;28;20075;-63
2024/01/01 03:26:30;;;;;;;3.10;1.58;;;;;;;-8.87;53.17;99543.06;4926256;29;20047;-64
2024/01/01 03:28:56;;;;;;;2.60;1.35;;;;;;;-8.67;52.90;99592.31;4937052;28;20048;-64
2024/01/01 03:31:22;;;;;;;2.92;1.80;;;;;;;-9.16;53.52;99500.84;4937479;28;20137;-62
2024/01/01 03:33:48;;;;;;;3.00;1.40;;;;;;;-8.59;53.29;99602.00;4906786;29;20044;-62
2024/01/01 03:36:14;;;;;;;2.50;1.45;;;;;;;-8.72;53.14;99560.84;4922757;29;20554;-63
2024/01/01 03:38:40;;;;;;;3.22;1.80;;;;;;;-8.74;52.96;99582.56;4940680;28;20589;-63
2024/01/01 03:41:07;;;;;;;5.00;1.67;;;;;;;-8.76;53.10;99588.31;4939782;28;20048;-63
2024/01/01 03:43:33;;;;;;;2.50;1.55;;;;;;;-8.67;53.22;99609.06;4911179;29;20040;-62
2024/01/01 03:45:59;;;;;;;3.95;1.38;;;;;;;-8.69;53.22;99618.19;4925863;29;20048;-64
2024/01/01 03:48:25;;;;;;;1.80;1.20;;;;;;;-8.87;53.14;99591.00;4910310;29;20099;-64
2024/01/01 03:50:51;;;;;;;4.18;1.50;;;;;;;-8.67;52.93;99616.66;4942451;28;20551;-64
2024/01/01 03:53:17;;;;;;;4.50;1.75;;;;;;;-8.75;53.34;99610.25;4925516;29;20059;-63
2024/01/01 03:55:43;;;;;;;2.88;1.55;;;;;;;-8.88;53.29;99601.00;4925471;29;20059;-64
2024/01/01 03:58:12;;;;;;;2.03;1.42;;;;;;;-8.91;53.31;99590.72;4925161;29;20145;-62
2024/01/01 04:00:38;;;;;;;3.35;1.40;;;;;;;-8.62;53.22;99635.50;4925413;29;20190;-63
2024/01/01 04:03:04;;;;;;;2.00;1.30;;;;;;;-8.71;53.15;99630.72;4925855;29;20499;-63
2024/01/01 04:05:31;;;;;;;3.50;1.60;;;;;;;-8.66;53.17;99639.47;4910310;29;20071;-64
2024/01/01 04:07:59;;;;;;;2.22;1.48;;;;;;;-8.59;52.86;99650.84;4925694;29;20051;-63
2024/01/01 04:10:26;;;;;;;2.88;1.30;;;;;;;-8.92;53.03;99617.56;4925517;29;20558;-63
2024/01/01 04:12:52;;;;;;;3.22;1.58;;;;;;;-8.67;53.32;99650.34;4925917;29;20578;-63
2024/01/01 04:15:17;;;;;;;3.38;1.33;;;;;;;-8.78;53.33;99644.59;4925109;29;20043;-62
2024/01/01 04:17:43;;;;;;;2.92;1.50;;;;;;;-8.71;52.53;99662.63;4913609;29;20075;-63
2024/01/01 04:20:10;;;;;;;3.35;1.48;;;;;;;-8.62;53.09;99685.97;4924855;29;20404;-64
2024/01/01 04:22:38;;;;;;;2.95;1.55;;;;;;;-8.60;53.43;99688.59;4924748;29;20475;-64
2024/01/01 04:25:05;;;;;;;3.20;1.58;;;;;;;-8.58;53.24;99677.81;4925831;29;20057;-64
2024/01/01 04:27:31;;;;;;;2.22;1.50;;;;;;;-8.60;53.11;99683.56;4926953;29;20103;-62
2024/01/01 04:29:57;;;;;;;3.17;1.70;;;;;;;-8.76;52.92;99659.81;4924958;29;20047;-63
2024/01/01 04:32:26;;;;;;;2.72;1.67;;;;;;;-8.80;53.27;99647.78;4940832;28;20048;-63
2024/01/01 04:34:52;;;;;;;2.15;1.38;;;;;;;-8.50;53.18;99689.31;4924837;29;20506;-63
2024/01/01 04:37:18;;;;;;;2.50;1.23;;;;;;;-8.57;53.45;99687.16;4924970;29;20055;-64
2024/01/01 04:39:44;;;;;;;2.33;1.38;;;;;;;-8.54;53.19;99679.78;4924848;29;20062;-63
2024/01/01 04:42:13;;;;;;;3.80;1.90;;;;;;;-8.34;53.23;99705.41;4938642;28;20510;-63
2024/01/01 04:44:39;;;;;;;4.05;1.90;;;;;;;-8.40;52.75;99694.91;4939536;28;20055;-63
2024/01/01 04:47:05;;;;;;;3.22;1.58;;;;;;;-8.62;53.20;99668.28;4893974;29;20047;-63
2024/01/01 04:49:31;;;;;;;3.35;1.63;;;;;;;-8.47;53.21;99691.97;4924848;29;20043;-63
2024/01/01 04:51:57;;;;;;;4.15;1.92;;;;;;;-8.40;53.17;99708.41;4926058;29;20096;-63
2024/01/01 04:54:24;;;;;;;3.78;1.80;;;;;;;-8.45;53.19;99691.19;4924343;29;20119;-63
2024/01/01 04:56:50;;;;;;;3.70;1.55;;;;;;;-8.47;53.28;99686.91;4941163;28;20083;-63
2024/01/01 04:59:16;;;;;;;3.78;1.83;;;;;;;-8.31;53.08;99715.72;4925276;29;20519;-63
2024/01/01 05:01:42;;;;;;;5.38;1.67;;;;;;;-8.32;53.29;99689.56;4909657;29;20103;-63
2024/01/01 05:04:08;;;;;;;2.38;1.45;;;;;;;-8.00;53.19;99732.81;4927622;29;20046;-63
2024/01/01 05:06:37;;;;;;;2.70;1.48;;;;;;;-7.96;53.03;99729.72;4939117;28;20052;-63
2024/01/01 05:09:03;;;;;;;2.85;1.75;;;;;;;-8.00;53.17;99719.34;4924269;29;20055;-64
2024/01/01 05:11:33;;;;;;;3.35;1.83;;;;;;;-8.13;52.10;99718.53;4923176;29;20039;-63
2024/01/01 05:14:00;;;;;;;4.85;1.85;;;;;;;-8.24;52.77;99716.97;4940508;28;20046;-63
2024/01/01 05:16:26;;;;;;;3.22;1.70;;;;;;;-8.31;53.11;99708.13;4925028;29;20048;-65
2024/01/01 05:18:52;;;;;;;3.20;1.83;;;;;;;-8.35;53.03;99721.34;4938901;28;20109;-63
2024/01/01 05:21:21;;;;;;;3.80;1.63;;;;;;;-8.37;53.28;99710.25;4923835;29;20043;-63
2024/01/01 05:23:46;;;;;;;3.67;1.80;;;;;;;-8.10;53.16;99744.00;4941499;28;20356;-63
2024/01/01 05:26:12;;;;;;;3.17;1.80;;;;;;;-7.99;53.71;99744.69;4939929;28;20043;-64
2024/01/01 05:28:38;;;;;;;4.38;1.75;;;;;;;-8.20;53.22;99691.16;4906544;29;20047;-63
2024/01/01 05:31:04;;;;;;;3.78;2.08;;;;;;;-7.91;53.42;99735.94;4940378;28;20100;-63
2024/01/01 05:33:30;;;;;;;4.28;1.80;;;;;;;-7.76;53.21;99750.31;4923272;29;20051;-64
2024/01/01 05:35:56;;;;;;;2.55;2.00;;;;;;;-7.73;53.21;99735.34;4924848;29;20490;-63
2024/01/01 05:38:22;;;;;;;3.53;1.70;;;;;;;-7.66;53.10;99757.72;4923347;29;20110;-63
2024/01/01 05:40:48;;;;;;;3.17;1.90;;;;;;;-8.06;53.03;99685.31;4939914;28;20044;-63
2024/01/01 05:43:14;;;;;;;5.15;1.85;;;;;;;-7.62;53.30;99758.78;4923420;29;20507;-64
2024/01/01 05:45:40;;;;;;;3.97;1.50;;;;;;;-7.71;53.28;99747.31;4922247;29;20044;-62
2024/01/01 05:48:07;;;;;;;4.15;1.85;;;;;;;-7.78;52.98;99736.72;4892455;29;20062;-64
2024/01/01 05:50:33;;;;;;;4.22;1.80;;;;;;;-7.81;53.17;99741.56;4939171;28;20047;-63
2024/01/01 05:52:59;;;;;;;2.95;1.83;;;;;;;-7.88;53.26;99736.16;4924010;29;20384;-63
2024/01/01 05:55:25;;;;;;;3.47;1.88;;;;;;;-7.76;53.22;99753.75;4925299;29;20058;-63
2024/01/01 05:57:51;;;;;;;3.63;1.90;;;;;;;-7.67;53.85;99758.50;4937672;28;20040;-63
2024/01/01 06:00:19;;;;;;;4.75;1.77;;;;;;;-7.95;53.82;99717.97;4937586;28;20146;-63
2024/01/01 06:02:48;;;;;;;3.45;1.73;;;;;;;-7.81;53.51;99734.00;4923046;29;20561;-63
2024/01/01 06:05:14;;;;;;;6.38;2.03;;;;;;;-7.82;53.55;99712.91;4939132;28;20047;-65
2024/01/01 06:07:41;;;;;;;3.30;1.70;;;;;;;-7.43;53.55;99766.75;4907136;29;20058;-64
2024/01/01 06:10:09;;;;;;;4.13;2.00;;;;;;;-7.43;53.53;99748.19;4938952;28;20044;-63
2024/01/01 06:12:35;;;;;;;3.15;1.95;;;;;;;-7.38;53.43;99746.78;4939811;28;20347;-65
2024/01/01 06:15:01;;;;;;;4.55;1.92;;;;;;;-7.32;53.54;99767.41;4890574;29;20063;-63
2024/01/01 06:17:30;;;;;;;3.65;1.85;;;;;;;-7.29;53.56;99769.28;4926102;29;20057;-63
2024/01/01 06:19:56;;;;;;;2.75;1.90;;;;;;;-7.24;53.45;99785.59;4923616;29;21119;-63
2024/01/01 06:22:23;;;;;;;5.25;1.90;;;;;;;-7.41;53.62;99751.69;4922157;29;20047;-63
2024/01/01 06:24:50;;;;;;;4.32;1.90;;;;;;;-7.22;53.32;99776.44;4907639;29;20051;-64
2024/01/01 06:27:16;;;;;;;3.63;1.73;;;;;;;-7.36;54.29;99762.94;4911370;29;20838;-63
2024/01/01 06:29:42;;;;;;;3.72;2.17;;;;;;;-7.30;54.22;99763.31;4923725;29;20071;-63
2024/01/01 06:32:08;;;;;;;4.80;1.90;;;;;;;-7.21;53.86;99757.09;4921922;29;20075;-63
2024/01/01 06:34:34;;;;;;;4.07;2.10;;;;;;;-7.25;53.39;99756.00;4922745;29;20055;-64
2024/01/01 06:37:00;;;;;;;4.40;2.10;;;;;;;-7.15;53.79;99772.63;4922517;29;20550;-63
2024/01/01 06:39:28;;;;;;;3.70;1.98;;;;;;;-7.02;53.85;99791.97;4937154;28;20106;-63
2024/01/01 06:41:54;;;;;;;5.30;2.03;;;;;;;-6.92;53.74;99790.88;4923160;29;20495;-63
2024/01/01 06:44:25;;;;;;;4.18;2.33;;;;;;;-6.81;53.87;99795.78;4921406;29;20067;-63
2024/01/01 06:46:51;;;;;;;3.60;1.95;;;;;;;-6.83;53.66;99766.13;4936507;28;20460;-63
2024/01/01 06:49:19;;;;;;;4.70;1.90;;;;;;;-6.56;53.25;99784.63;4920353;29;20146;-64
2024/01/01 06:51:50;;;;;;;3.65;1.70;;;;;;;-6.30;54.13;99800.47;4922515;29;20044;-63
2024/01/01 06:54:17;;;;;;;5.03;2.10;;;;;;;-6.06;53.81;99795.94;4937826;28;20051;-64
2024/01/01 06:56:43;;;;;;;4.25;2.33;;;;;;;-5.69;53.88;99799.66;4937368;28;20119;-63
2024/01/01 06:59:12;;;;;;;3.67;1.95;;;;;;;-5.44;54.18;99798.50;4929543;28;20048;-63
2024/01/01 07:01:38;;;;;;;4.45;2.13;;;;;;;-5.28;53.86;99795.16;4927143;29;20060;-64
2024/01/01 07:04:07;;;;;;;3.10;1.90;;;;;;;-5.01;53.82;99800.84;4938128;28;20054;-64
2024/01/01 07:06:34;;;;;;;3.03;1.73;;;;;;;-4.91;53.94;99786.97;4921489;29;20046;-64
2024/01/01 07:09:00;;;;;;;4.63;2.40;;;;;;;-5.00;53.85;99745.88;4909871;29;20054;-63
2024/01/01 07:11:26;;;;;;;3.65;2.22;;;;;;;-5.06;54.07;99743.88;4924024;29;20042;-64
2024/01/01 07:13:54;;;;;;;4.07;2.30;;;;;;;-4.88;53.52;99778.66;4939575;28;20059;-64
2024/01/01 07:16:20;;;;;;;4.32;2.28;;;;;;;-4.69;53.69;99805.88;4937724;28;20448;-62
2024/01/01 07:18:46;;;;;;;7.90;3.20;;;;;;;-4.70;53.77;99809.19;4937676;28;20044;-63
2024/01/01 07:21:12;;;;;;;3.80;2.30;;;;;;;-4.91;53.51;99819.97;4922551;29;20106;-64
2024/01/01 07:23:38;;;;;;;3.03;1.95;;;;;;;-4.93;54.12;99813.94;4922881;29;20043;-64
2024/01/01 07:26:04;;;;;;;3.55;2.13;;;;;;;-5.09;53.80;99794.50;4894670;29;20503;-64
2024/01/01 07:28:31;;;;;;;5.07;2.65;;;;;;;-5.01;53.98;99805.91;4937582;28;20095;-64
2024/01/01 07:30:58;;;;;;;4.53;2.45;;;;;;;-5.08;53.95;99792.81;4923285;29;20106;-63
2024/01/01 07:33:24;;;;;;;4.85;2.40;;;;;;;-5.15;53.17;99784.00;4938341;28;20039;-63
2024/01/01 07:35:50;;;;;;;4.88;2.30;;;;;;;-5.28;53.53;99769.78;4921928;29;20459;-63
2024/01/01 07:38:16;;;;;;;3.97;2.20;;;;;;;-5.17;53.80;99793.19;4921767;29;20795;-63
2024/01/01 07:40:45;;;;;;;3.95;1.92;;;;;;;-5.18;53.71;99789.78;4907269;29;20044;-63
2024/01/01 07:43:14;;;;;;;3.72;1.95;;;;;;;-5.34;53.80;99751.69;4926094;29;20403;-65
2024/01/01 07:45:40;;;;;;;3.13;1.88;;;;;;;-4.87;53.81;99806.66;4920177;29;20056;-63
2024/01/01 07:48:06;;;;;;;4.03;2.33;;;;;;;-4.86;53.76;99810.94;4923666;29;20043;-64
2024/01/01 07:50:35;;;;;;;3.58;2.00;;;;;;;-4.79;54.47;99768.09;4936751;28;20130;-64
2024/01/01 07:53:06;;;;;;;3.25;1.88;;;;;;;-4.40;54.18;99776.03;4922647;29;20036;-66
2024/01/01 07:55:32;;;;;;;4.03;2.03;;;;;;;-3.76;54.16;99810.53;4905613;29;20095;-63
2024/01/01 07:58:00;;;;;;;2.63;1.77;;;;;;;-3.34;53.59;99817.63;4937476;28;20170;-63
2024/01/01 08:00:27;;;;;;;2.35;1.60;;;;;;;-2.43;54.56;99797.94;4937863;28;20430;-64
2024/01/01 08:02:53;;;;;;;3.33;1.98;;;;;;;-1.15;53.75;99814.13;4891013;29;20538;-64
2024/01/01 08:05:21;;;;;;;3.25;1.90;;;;;;;-0.17;53.02;99810.91;4939716;28;20044;-66
2024/01/01 08:07:47;;;;;;;3.28;2.00;;;;;;;0.52;52.62;99801.19;4921475;29;20139;-63
2024/01/01 08:10:17;;;;;;;3.55;1.90;;;;;;;1.37;51.89;99801.19;4923201;29;20044;-64
2024/01/01 08:12:44;;;;;;;3.40;1.83;;;;;;;1.88;51.21;99804.25;4921257;29;20063;-65
2024/01/01 08:15:11;;;;;;;3.00;2.00;;;;;;;2.12;51.10;99765.53;4920969;29;20134;-64
2024/01/01 08:17:37;;;;;;;3.60;1.90;;;;;;;2.77;50.03;99749.03;4920582;29;20099;-63
2024/01/01 08:20:06;;;;;;;3.20;1.75;;;;;;;3.54;49.51;99731.72;4920849;29;20043;-66
2024/01/01 08:22:32;;;;;;;3.05;2.03;;;;;;;4.64;46.95;99797.09;4905912;29;20092;-64
2024/01/01 08:24:58;;;;;;;3.53;1.95;;;;;;;4.55;47.25;99729.91;4940209;28;20075;-63
2024/01/01 08:27:24;;;;;;;2.72;1.92;;;;;;;5.79;47.16;99789.06;4924237;29;20597;-64
2024/01/01 08:29:51;;;;;;;2.42;2.20;;;;;;;6.05;46.07;99759.25;4924830;29;20048;-65
2024/01/01 08:32:17;;;;;;;2.75;1.77;;;;;;;4.98;43.53;99733.09;4941409;28;20110;-63
2024/01/01 08:34:43;;;;;;;3.08;1.95;;;;;;;3.57;42.43;99765.25;4924623;29;20459;-65
2024/01/01 08:37:14;;;;;;;3.15;2.13;;;;;;;2.37;42.32;99790.09;4924551;29;20040;-65
2024/01/01 08:39:41;;;;;;;3.88;2.08;;;;;;;1.67;42.64;99743.84;4923732;29;20546;-65
2024/01/01 08:42:07;;;;;;;2.60;2.10;;;;;;;1.76;42.28;99815.09;4909944;29;20577;-64
2024/01/01 08:44:33;;;;;;;2.72;1.92;;;;;;;0.89;41.70;99753.66;4908714;29;20484;-64
2024/01/01 08:46:59;;;;;;;2.90;1.90;;;;;;;0.85;42.87;99811.63;4876840;29;20068;-65
2024/01/01 08:49:25;;;;;;;4.45;2.33;;;;;;;0.45;41.67;99812.94;4939908;28;20074;-64
2024/01/01 08:51:51;;;;;;;3.63;2.10;;;;;;;0.29;42.26;99832.03;4941006;28;20039;-64
2024/01/01 08:54:18;;;;;;;3.72;2.40;;;;;;;0.00;42.21;99801.25;4923094;29;20051;-64
2024/01/01 08:56:45;;;;;;;5.18;2.00;;;;;;;-0.10;41.85;99828.19;4940011;28;20499;-64
2024/01/01 08:59:16;;;;;;;3.28;2.25;;;;;;;-0.25;42.20;99828.53;4908528;29;20054;-65
2024/01/01 09:01:44;;;;;;;3.50;2.00;;;;;;;-0.53;41.14;99824.97;4924830;29;20043;-65
2024/01/01 09:04:10;;;;;;;3.20;1.90;;;;;;;-1.14;41.26;99806.56;4941562;28;20055;-66
2024/01/01 09:06:37;;;;;;;3.22;1.92;;;;;;;-1.62;41.75;99768.09;4908668;29;20522;-65
2024/01/01 09:09:03;;;;;;;3.25;2.03;;;;;;;-1.25;42.22;99851.22;4923739;29;20503;-64
2024/01/01 09:11:29;;;;;;;3.22;2.00;;;;;;;-1.40;42.55;99849.81;4924350;29;20051;-66
2024/01/01 09:13:55;;;;;;;3.42;1.95;;;;;;;-1.60;42.56;99772.41;4924325;29;20063;-65
2024/01/01 09:16:22;;;;;;;4.60;2.45;;;;;;;-0.89;42.04;99834.72;4924656;29;20051;-63
2024/01/01 09:18:48;;;;;;;5.18;2.42;;;;;;;-0.99;42.27;99764.50;4924208;29;20043;-65
2024/01/01 09:21:19;;;;;;;3.53;2.10;;;;;;;-0.28;41.66;99848.88;4924810;29;20036;-64
2024/01/01 09:23:45;;;;;;;2.65;1.85;;;;;;;0.33;42.53;99840.72;4940406;28;20040;-65
2024/01/01 09:26:14;;;;;;;3.35;1.85;;;;;;;0.27;41.99;99820.88;4925141;29;20055;-65
2024/01/01 09:28:40;;;;;;;4.80;2.20;;;;;;;0.41;41.50;99837.59;4938813;28;20043;-65
2024/01/01 09:31:08;;;;;;;3.35;1.85;;;;;;;0.24;41.53;99829.34;4923646;29;20106;-64
2024/01/01 09:33:37;;;;;;;4.35;2.28;;;;;;;0.16;41.15;99846.13;4892242;29;20044;-64
2024/01/01 09:36:04;;;;;;;4.13;2.88;;;;;;;-0.18;41.59;99792.09;4922671;29;20066;-65
2024/01/01 09:38:30;;;;;;;3.88;2.42;;;;;;;-0.52;41.39;99815.63;4922201;29;20036;-64
2024/01/01 09:40:56;;;;;;;4.32;2.40;;;;;;;-0.42;41.66;99860.28;4939821;28;20063;-63
2024/01/01 09:43:22;;;;;;;3.65;2.20;;;;;;;-0.65;41.78;99817.75;4908056;29;20037;-66
2024/01/01 09:45:50;;;;;;;4.60;2.28;;;;;;;-0.21;41.78;99875.56;4939374;28;20058;-63
2024/01/01 09:48:17;;;;;;;4.28;2.72;;;;;;;-0.09;41.31;99854.66;4928186;29;20048;-63
2024/01/01 09:50:43;;;;;;;3.53;2.05;;;;;;;-0.18;40.62;99858.63;4924165;29;20110;-64
2024/01/01 09:53:10;;;;;;;4.30;2.60;;;;;;;-0.33;41.46;99814.59;4924167;29;20047;-63
2024/01/01 09:55:38;;;;;;;4.93;2.08;;;;;;;0.46;41.60;99863.34;4927560;29;20055;-64
2024/01/01 09:58:04;;;;;;;3.33;2.28;;;;;;;0.56;40.96;99836.34;4926970;29;20142;-65
2024/01/01 10:00:30;;;;;;;4.53;2.40;;;;;;;0.53;40.10;99842.25;4923514;29;20086;-64
2024/01/01 10:03:10;;;;;;;4.07;1.92;;;;;;;0.67;39.63;99827.28;4924749;29;20071;-65
2024/01/01 10:05:41;;;;;;;4.05;2.50;;;;;;;0.55;40.21;99781.66;4919131;29;20044;-65
2024/01/01 10:08:09;;;;;;;4.50;2.60;;;;;;;0.85;40.15;99808.22;4938915;28;20134;-64
2024/01/01 10:10:37;;;;;;;4.22;2.47;;;;;;;1.48;40.61;99827.13;4924520;29;20047;-64
2024/01/01 10:13:11;;;;;;;4.03;2.45;;;;;;;2.03;40.24;99848.31;4925778;29;20063;-64
2024/01/01 10:15:40;;;;;;;3.67;2.40;;;;;;;1.72;39.72;99818.38;4922427;29;20039;-64
2024/01/01 10:18:16;;;;;;;3.53;2.40;;;;;;;1.19;39.31;99828.03;4924481;29;20148;-63
2024/01/01 10:20:43;;;;;;;5.05;2.47;;;;;;;0.51;38.83;99832.75;4909495;29;20582;-64
2024/01/01 10:23:25;;;;;;;3.63;2.30;;;;;;;0.10;39.55;99851.91;4905680;29;20170;-64
2024/01/01 10:26:05;;;;;;;4.47;3.00;;;;;;;-0.22;39.51;99854.19;4923329;29;20044;-65
2024/01/01 10:28:32;;;;;;;3.65;1.98;;;;;;;-0.52;39.46;99857.41;4924467;29;20058;-64
2024/01/01 10:31:01;;;;;;;4.03;2.20;;;;;;;-0.86;39.36;99851.00;4938900;28;20511;-65
2024/01/01 10:33:29;;;;;;;3.60;2.38;;;;;;;-1.25;40.27;99858.88;4923895;29;20130;-64
2024/01/01 10:36:00;;;;;;;4.55;2.33;;;;;;;-1.56;39.99;99850.00;4906737;29;20088;-64
2024/01/01 10:38:31;;;;;;;3.38;2.20;;;;;;;-1.85;39.96;99860.72;4894753;29;20048;-64
2024/01/01 10:40:58;;;;;;;3.38;2.38;;;;;;;-2.01;40.60;99858.34;4938344;28;20099;-63
2024/01/01 10:43:28;;;;;;;3.15;2.10;;;;;;;-2.32;40.72;99849.38;4921868;29;20043;-65
2024/01/01 10:46:04;;;;;;;3.95;2.00;;;;;;;-2.32;40.88;99857.03;4937905;28;20689;-64
2024/01/01 10:48:37;;;;;;;3.78;2.25;;;;;;;-2.43;40.54;99865.06;4923093;29;20475;-65
2024/01/01 10:51:18;;;;;;;3.42;2.25;;;;;;;-2.55;41.25;99864.53;4922796;29;20048;-65
2024/01/01 10:53:56;;;;;;;5.00;2.25;;;;;;;-2.74;40.98;99871.31;4921755;29;20040;-64
2024/01/01 10:56:31;;;;;;;4.60;2.63;;;;;;;-2.91;41.18;99879.84;4937085;28;20043;-65
2024/01/01 10:59:23;;;;;;;5.18;2.50;;;;;;;-3.03;41.30;99875.94;4938303;28;20059;-65
2024/01/01 11:01:52;;;;;;;4.83;2.60;;;;;;;-3.05;41.31;99882.63;4921293;29;20086;-64
2024/01/01 11:04:22;;;;;;;4.53;2.10;;;;;;;-3.51;41.76;99832.06;4937490;28;20043;-65
2024/01/01 11:06:48;;;;;;;5.10;2.75;;;;;;;-3.47;41.64;99828.88;4921587;29;20040;-64
2024/01/01 11:09:24;;;;;;;5.80;2.83;;;;;;;-3.10;41.47;99896.81;4904994;29;20048;-63
2024/01/01 11:11:51;;;;;;;5.05;2.67;;;;;;;-3.38;42.00;99898.03;4922694;29;20097;-65
2024/01/01 11:14:29;;;;;;;5.30;2.63;;;;;;;-3.63;42.00;99903.59;4922601;29;20040;-64
2024/01/01 11:17:00;;;;;;;5.25;2.65;;;;;;;-3.92;42.13;99864.84;4923550;29;20040;-64
2024/01/01 11:19:39;;;;;;;3.83;2.38;;;;;;;-3.99;42.01;99886.53;4920709;29;20040;-65
2024/01/01 11:22:25;;;;;;;4.07;2.22;;;;;;;-4.10;42.59;99882.59;4892449;29;20056;-65
2024/01/01 11:24:52;;;;;;;4.63;2.30;;;;;;;-4.29;42.75;99879.06;4920526;29;20106;-65
2024/01/01 11:27:24;;;;;;;5.85;2.63;;;;;;;-4.32;42.84;99895.84;4921613;29;20052;-64
2024/01/01 11:29:50;;;;;;;;;;;;;;;-4.45;43.06;99899.41;4923545;29;20426;-64
2024/01/01 11:32:19;;;;;;;6.40;2.67;;;;;;;-4.71;43.37;99871.84;4922346;29;20397;-65
2024/01/01 11:35:06;;;;;;;4.75;2.60;;;;;;;-5.00;43.10;99868.59;4909894;29;20044;-65